Etusivu
METAR-TAF:

METAR-TAF

Lentoasemat :

Saint-Dizier, Ranska

Leveyspiiri: 48-38N, Pituuspiiri: 004-54E, korkeus merenpinnasta: 139 m

Tämänhetkinen sää

Tämä raportti tehtiin 1 tunti ja 33 minuuttia sitten, kello 02.00 UTC
Tuuli 1 kn eri suunnista
Lämpötila -1°C
Kosteus 100%
Ilmanpaine 1025 hPa
Näkyvyys: 0400 m
jäätävää sumua

METAR: LFSI 190200Z AUTO VRB01KT 0500 0400 R11/0700U FZFG VV/// M01/M01 Q1025

Aika: 04:33 (03:33 UTC)

Sääennuste

Tämä raportti tehtiin 1 tunti ja 33 minuuttia sitten, kello 02.00 UTC
Ennuste voimassa 19. päivästä klo 03 UTC - 20. päivään klo 03 UTC
Tuuli 2 kn eri suunnista
Näkyvyys: 0400 m
jäätävää sumua
Tulossa
19. päivästä klo 07 UTC - 19. päivään klo 10 UTC
Näkyvyys 10 km tai enemmän
ei pilviä alle 1500 m:ssä eikä cumulonimbus-pilviä

TAF: LFSI 190200Z 1903/2003 VRB02KT 0400 FZFG VV/// BECMG 1907/1910 CAVOK

Säähavainnot ja -ennusteet yli 4000 lentoasemalta (METAR- ja TAF-raportit).

Käytössä olevat sääasemat on merkitty karttaan keltaisilla ja punaisilla pisteillä.

Aseta hiiri pisteen päälle nähdäksesi sääaseman nimen.

Klikkaa sitten nähdäksesi säähavainnot ja -ennusteet.

Kartan vaihtaminen: klikkaa mustalla rastilla varustettuja vihreitä pisteitä, niin voit zoomata sisään; viivalla varustettua vihreää pistettä, niin voit zoomata ulos tai vihreitä nuolia, niin pääset viereisille kartoille.


METAR-TAF: